Terminal Aerodrome Forecast
Issued by NWS Duluth, MN

Home | Current Version | Previous Version | Text Only | Print | Product List | Glossary On
Versions: 1 2 3 4 5 6 7 8 9 10 11 12 13 14 15 16 17 18 19 20 21 22 23 24 25 26 27 28 29 30 31 32
000
FTUS43 KDLH 071100 RRA
TAFDLH
TAF
KDLH 071145Z 0712/0812 27005KT P6SM FEW090
     FM071600 28012G20KT P6SM SCT060
     FM072000 26015KT P6SM VCTS BKN050CB
     FM080300 29006KT P6SM VCTS BKN050CB
     FM080600 30005KT P6SM BKN050=

USA.gov is the U.S. government's official web portal to all federal, state and local government web resources and services.